Time;durP1;ratioP1;P1;durP2;ratioP2;P2;SDS_P1;SDS_P2;PMS_P1;PMS_P2;Temp;Humidity;BMP_temperature;BMP_pressure;BME280_temperature;BME280_humidity;BME280_pressure;Samples;Min_cycle;Max_cycle;Signal;HPM_P1;HPM_P2
2023/09/04 00:02:00;;;;;;;1.25;0.55;;;15.20;92.40;;;;;;6271657;22;20027;-88
2023/09/04 00:04:28;;;;;;;0.95;0.60;;;15.10;92.40;;;;;;6242488;22;20022;-88
2023/09/04 00:06:55;;;;;;;1.33;0.60;;;15.10;92.50;;;;;;6259678;22;20015;-88
2023/09/04 00:09:22;;;;;;;2.33;0.85;;;15.10;92.50;;;;;;6285568;22;20019;-89
2023/09/04 00:11:49;;;;;;;1.85;0.80;;;15.10;92.50;;;;;;6260050;22;20503;-89
2023/09/04 00:14:17;;;;;;;1.45;0.70;;;15.10;92.60;;;;;;6234403;22;20015;-89
2023/09/04 00:16:44;;;;;;;1.88;0.90;;;15.00;92.60;;;;;;6283379;22;20103;-83
2023/09/04 00:19:11;;;;;;;1.40;0.60;;;15.00;92.60;;;;;;6231026;22;20334;-83
2023/09/04 00:21:38;;;;;;;1.27;0.60;;;14.90;92.60;;;;;;6255605;22;20019;-83
2023/09/04 00:24:05;;;;;;;1.33;0.70;;;14.90;92.70;;;;;;6230299;22;20429;-82
2023/09/04 00:26:32;;;;;;;1.55;0.60;;;14.90;92.70;;;;;;6255457;22;20070;-82
2023/09/04 00:28:59;;;;;;;1.27;0.57;;;14.90;92.80;;;;;;6230350;22;20472;-82
2023/09/04 00:31:27;;;;;;;2.13;0.98;;;14.80;92.80;;;;;;6255721;22;20019;-83
2023/09/04 00:33:54;;;;;;;1.30;0.60;;;14.80;92.80;;;;;;6230328;22;20140;-83
2023/09/04 00:36:21;;;;;;;1.92;0.80;;;14.80;92.90;;;;;;6255226;22;20564;-83
2023/09/04 00:38:48;;;;;;;1.42;0.60;;;14.70;92.90;;;;;;6230446;22;20120;-83
2023/09/04 00:41:18;;;;;;;1.70;1.00;;;14.70;92.90;;;;;;6255556;22;20346;-83
2023/09/04 00:43:46;;;;;;;1.20;0.60;;;14.70;92.90;;;;;;6256946;22;20027;-82
2023/09/04 00:46:14;;;;;;;2.25;0.93;;;14.70;92.90;;;;;;6231064;22;20030;-83
2023/09/04 00:48:42;;;;;;;1.48;0.60;;;14.70;92.90;;;;;;6256537;22;20341;-84
2023/09/04 00:51:09;;;;;;;1.10;0.60;;;14.70;93.00;;;;;;6231948;22;20067;-83
2023/09/04 00:53:37;;;;;;;1.73;0.82;;;14.70;92.90;;;;;;6255255;22;20027;-83
2023/09/04 00:56:07;;;;;;;1.10;0.57;;;14.70;92.90;;;;;;6255224;22;20019;-83
2023/09/04 00:58:35;;;;;;;0.98;0.60;;;14.70;93.00;;;;;;6280549;22;20034;-83
2023/09/04 01:01:02;;;;;;;1.48;0.55;;;14.70;93.00;;;;;;6229887;22;20472;-83
2023/09/04 01:03:31;;;;;;;1.55;0.55;;;14.60;93.00;;;;;;6255352;22;20023;-83
2023/09/04 01:06:01;;;;;;;1.92;0.93;;;14.60;93.00;;;;;;6255257;22;20093;-83
2023/09/04 01:08:28;;;;;;;1.83;0.80;;;14.60;93.10;;;;;;6280496;22;20023;-84
2023/09/04 01:11:29;;;;;;;2.10;0.85;;;14.60;93.10;;;;;;6255241;22;20019;-83
2023/09/04 01:13:57;;;;;;;1.13;0.57;;;14.70;93.10;;;;;;6279830;22;20019;-83
2023/09/04 01:16:28;;;;;;;1.43;0.70;;;14.60;93.10;;;;;;6256896;22;20027;-83
2023/09/04 01:18:55;;;;;;;2.53;0.75;;;14.60;93.10;;;;;;6230070;22;20303;-83
2023/09/04 01:21:23;;;;;;;1.95;0.70;;;14.60;93.10;;;;;;6280150;22;20023;-83
2023/09/04 01:23:50;;;;;;;1.70;0.80;;;14.60;93.10;;;;;;6280417;22;20019;-82
2023/09/04 01:26:32;;;;;;;3.05;1.30;;;14.60;93.10;;;;;;6255734;22;20020;-83
2023/09/04 01:29:18;;;;;;;1.85;0.77;;;14.60;93.10;;;;;;6306574;22;20023;-83
2023/09/04 01:31:51;;;;;;;3.25;0.65;;;14.60;93.10;;;;;;6306015;22;20019;-83
2023/09/04 01:34:25;;;;;;;1.67;0.90;;;14.60;93.10;;;;;;6281478;22;20103;-83
2023/09/04 01:36:55;;;;;;;1.67;0.80;;;14.60;93.50;;;;;;6280253;22;20023;-84
2023/09/04 01:39:23;;;;;;;1.38;0.80;;;14.60;93.20;;;;;;6255729;22;20114;-82
2023/09/04 01:41:50;;;;;;;2.22;0.70;;;14.60;93.20;;;;;;6255777;22;20417;-83
2023/09/04 01:44:18;;;;;;;2.00;0.90;;;14.60;93.20;;;;;;6230173;22;20023;-83
2023/09/04 01:46:45;;;;;;;2.13;0.93;;;14.60;93.20;;;;;;6280765;22;20353;-83
2023/09/04 01:49:13;;;;;;;1.85;0.70;;;14.60;93.20;;;;;;6280620;22;20102;-82
2023/09/04 01:51:40;;;;;;;2.45;0.98;;;14.60;93.10;;;;;;6230479;22;20102;-82
2023/09/04 01:54:08;;;;;;;2.60;1.13;;;14.70;93.20;;;;;;6230104;22;20463;-83
2023/09/04 01:56:35;;;;;;;3.15;1.17;;;14.70;93.10;;;;;;6230267;22;20019;-83
2023/09/04 01:59:02;;;;;;;2.40;1.05;;;14.70;93.10;;;;;;6255254;22;20044;-83
2023/09/04 02:01:32;;;;;;;2.20;1.00;;;14.70;93.10;;;;;;6229697;22;20341;-82
2023/09/04 02:03:59;;;;;;;2.80;1.25;;;14.70;93.10;;;;;;6254506;22;20391;-82
2023/09/04 02:06:28;;;;;;;2.30;1.20;;;14.70;93.10;;;;;;6229971;22;20069;-82
2023/09/04 02:08:56;;;;;;;2.25;1.10;;;14.70;93.40;;;;;;6254990;22;20345;-83
2023/09/04 02:11:24;;;;;;;2.50;1.20;;;14.70;93.40;;;;;;6255419;22;20094;-83
2023/09/04 02:13:51;;;;;;;2.28;1.20;;;14.70;93.10;;;;;;6229698;22;20025;-82
2023/09/04 02:16:18;;;;;;;2.33;1.23;;;14.70;93.10;;;;;;6229402;22;20101;-82
2023/09/04 02:18:45;;;;;;;1.88;1.02;;;14.70;93.20;;;;;;6255049;22;20034;-83
2023/09/04 02:21:12;;;;;;;2.58;1.30;;;14.70;93.20;;;;;;6280162;22;20088;-83
2023/09/04 02:23:41;;;;;;;1.90;1.00;;;14.60;93.20;;;;;;6230293;22;20096;-83
2023/09/04 02:26:10;;;;;;;2.42;1.10;;;14.60;93.20;;;;;;6230124;22;20068;-82
2023/09/04 02:28:37;;;;;;;2.17;0.95;;;14.60;93.20;;;;;;6229208;22;20319;-80
2023/09/04 02:31:06;;;;;;;2.28;1.20;;;14.60;93.20;;;;;;6230280;22;20019;-82
2023/09/04 02:33:34;;;;;;;1.88;1.10;;;14.60;93.30;;;;;;6281007;22;20022;-82
2023/09/04 02:36:02;;;;;;;2.08;1.27;;;14.60;93.30;;;;;;6280852;22;20023;-82
2023/09/04 02:38:29;;;;;;;2.72;1.35;;;14.50;93.30;;;;;;6229793;22;20023;-81
2023/09/04 02:40:57;;;;;;;1.83;1.02;;;14.50;93.30;;;;;;6254145;22;20109;-82
2023/09/04 02:43:24;;;;;;;2.65;1.23;;;14.50;93.30;;;;;;6229243;22;20184;-82
2023/09/04 02:45:52;;;;;;;3.40;1.25;;;14.50;93.30;;;;;;6253720;22;20019;-81
2023/09/04 02:48:19;;;;;;;2.83;1.38;;;14.50;93.30;;;;;;6205716;22;20023;-81
2023/09/04 02:50:46;;;;;;;3.47;1.33;;;14.50;93.40;;;;;;6281010;22;20016;-83
2023/09/04 02:53:16;;;;;;;3.40;1.40;;;14.50;93.40;;;;;;6281207;22;20097;-82
2023/09/04 02:55:47;;;;;;;2.70;1.30;;;14.50;93.40;;;;;;6230157;22;20077;-82
2023/09/04 02:58:15;;;;;;;2.10;1.00;;;14.50;93.40;;;;;;6280021;22;20023;-83
2023/09/04 03:00:43;;;;;;;2.78;1.40;;;14.40;93.40;;;;;;6305078;22;20330;-82
2023/09/04 03:03:10;;;;;;;2.50;1.35;;;14.40;93.40;;;;;;6229655;22;20024;-81
2023/09/04 03:05:37;;;;;;;3.20;1.52;;;14.40;93.40;;;;;;6229263;22;20019;-82
2023/09/04 03:08:05;;;;;;;2.95;1.42;;;14.40;93.40;;;;;;6254131;22;20030;-82
2023/09/04 03:10:32;;;;;;;2.17;1.13;;;14.40;93.40;;;;;;6229137;22;20119;-82
2023/09/04 03:12:59;;;;;;;2.90;1.42;;;14.40;93.40;;;;;;6228842;22;20102;-82
2023/09/04 03:15:27;;;;;;;2.60;1.48;;;14.40;93.40;;;;;;6229122;22;20049;-82
2023/09/04 03:17:57;;;;;;;3.20;1.27;;;14.40;93.40;;;;;;6256363;22;20391;-82
2023/09/04 03:20:24;;;;;;;3.00;1.40;;;14.40;93.50;;;;;;6230756;22;20023;-82
2023/09/04 03:22:55;;;;;;;2.63;1.42;;;14.40;93.50;;;;;;6256058;22;20092;-82
2023/09/04 03:25:22;;;;;;;3.13;1.50;;;14.30;93.50;;;;;;6230639;22;20441;-82
2023/09/04 03:27:49;;;;;;;3.13;1.70;;;14.30;93.50;;;;;;6281626;22;20025;-82
2023/09/04 03:30:19;;;;;;;2.83;1.70;;;14.30;93.50;;;;;;6281131;22;20019;-83
2023/09/04 03:32:49;;;;;;;2.67;1.02;;;14.30;93.60;;;;;;6230875;22;20103;-82
2023/09/04 03:35:17;;;;;;;2.63;1.60;;;14.30;93.60;;;;;;6231432;22;20348;-82
2023/09/04 03:37:45;;;;;;;3.10;1.50;;;14.30;93.60;;;;;;6231188;22;20445;-82
2023/09/04 03:40:24;;;;;;;2.50;1.02;;;14.20;93.60;;;;;;6231710;22;20023;-82
2023/09/04 03:42:53;;;;;;;3.40;2.10;;;14.20;93.60;;;;;;6230738;22;20031;-82
2023/09/04 03:45:20;;;;;;;3.35;1.70;;;14.20;93.60;;;;;;6281451;22;20034;-82
2023/09/04 03:47:48;;;;;;;2.50;1.45;;;14.20;93.70;;;;;;6231165;22;20023;-82
2023/09/04 03:50:16;;;;;;;8.77;2.13;;;14.10;93.70;;;;;;6281082;22;20039;-82
2023/09/04 03:52:44;;;;;;;5.45;2.10;;;14.10;93.70;;;;;;6281329;22;20098;-82
2023/09/04 03:55:11;;;;;;;3.30;1.92;;;14.10;93.70;;;;;;6281030;22;20046;-81
2023/09/04 03:57:43;;;;;;;3.00;1.60;;;14.10;93.70;;;;;;6230547;22;20027;-82
2023/09/04 04:00:15;;;;;;;2.60;1.52;;;14.20;93.70;;;;;;6281071;22;20023;-82
2023/09/04 04:02:45;;;;;;;3.00;1.42;;;14.10;93.70;;;;;;6208580;22;20023;-82
2023/09/04 04:05:14;;;;;;;3.78;1.85;;;14.10;93.70;;;;;;6255579;22;20046;-82
2023/09/04 04:07:42;;;;;;;3.83;1.98;;;14.20;93.70;;;;;;6231156;22;20019;-81
2023/09/04 04:10:09;;;;;;;3.85;2.28;;;14.20;93.70;;;;;;6255278;22;20106;-81
2023/09/04 04:12:37;;;;;;;3.22;1.85;;;14.20;93.70;;;;;;6255442;22;20023;-82
2023/09/04 04:15:06;;;;;;;3.75;1.65;;;14.10;93.70;;;;;;6230246;22;20034;-82
2023/09/04 04:17:37;;;;;;;3.55;2.13;;;14.20;93.70;;;;;;6281114;22;20471;-82
2023/09/04 04:20:12;;;;;;;3.75;1.90;;;14.10;93.70;;;;;;6281363;22;20031;-82
2023/09/04 04:22:40;;;;;;;3.13;1.70;;;14.10;93.70;;;;;;6282880;22;20015;-83
2023/09/04 04:25:08;;;;;;;3.53;2.22;;;14.10;93.70;;;;;;6307105;22;20043;-81
2023/09/04 04:27:35;;;;;;;3.85;1.98;;;14.10;93.70;;;;;;6281394;22;20042;-83
2023/09/04 04:30:05;;;;;;;3.20;1.67;;;14.10;93.70;;;;;;6281312;22;20049;-82
2023/09/04 04:32:32;;;;;;;3.33;1.90;;;14.10;93.70;;;;;;6281175;22;20015;-81
2023/09/04 04:34:59;;;;;;;3.10;1.90;;;14.10;93.70;;;;;;6255778;22;20047;-83
2023/09/04 04:37:26;;;;;;;3.55;1.85;;;14.10;93.70;;;;;;6281191;22;20069;-82
2023/09/04 04:39:53;;;;;;;3.72;1.98;;;14.10;93.80;;;;;;6255570;22;20019;-82
2023/09/04 04:42:24;;;;;;;4.07;2.20;;;14.10;93.80;;;;;;6230254;22;20019;-82
2023/09/04 04:44:55;;;;;;;3.28;1.98;;;14.10;93.80;;;;;;6306815;22;20023;-82
2023/09/04 04:47:23;;;;;;;4.43;2.45;;;14.10;93.80;;;;;;6281433;22;20406;-82
2023/09/04 04:49:52;;;;;;;3.10;1.80;;;14.10;93.80;;;;;;6281480;22;20064;-83
2023/09/04 04:52:19;;;;;;;4.10;2.00;;;14.10;93.70;;;;;;6280683;22;20088;-83
2023/09/04 04:54:46;;;;;;;3.28;1.90;;;14.10;93.70;;;;;;6280731;22;20103;-82
2023/09/04 04:57:13;;;;;;;3.47;1.60;;;14.10;93.70;;;;;;6280717;22;20390;-82
2023/09/04 04:59:43;;;;;;;3.08;1.75;;;14.10;93.70;;;;;;6282304;22;20349;-82
2023/09/04 05:02:14;;;;;;;4.25;1.83;;;14.10;93.70;;;;;;6307703;22;20023;-82
2023/09/04 05:04:45;;;;;;;4.47;2.08;;;14.20;93.70;;;;;;6281703;22;20326;-81
2023/09/04 05:07:15;;;;;;;3.10;1.73;;;14.10;93.60;;;;;;6281947;22;20025;-82
2023/09/04 05:09:42;;;;;;;3.08;1.65;;;14.10;93.60;;;;;;6255292;22;20452;-82
2023/09/04 05:12:09;;;;;;;4.22;2.10;;;14.20;93.70;;;;;;6280687;22;20042;-83
2023/09/04 05:14:37;;;;;;;3.95;2.08;;;14.10;93.60;;;;;;6280875;22;20019;-83
2023/09/04 05:17:04;;;;;;;3.25;1.83;;;14.20;93.60;;;;;;6280755;22;20119;-83
2023/09/04 05:19:31;;;;;;;3.78;2.00;;;14.20;93.60;;;;;;6280081;22;20390;-83
2023/09/04 05:21:58;;;;;;;3.78;2.13;;;14.20;93.60;;;;;;6254602;22;20034;-82
2023/09/04 05:24:25;;;;;;;3.92;2.20;;;14.20;93.60;;;;;;6280579;22;20019;-81
2023/09/04 05:26:52;;;;;;;4.18;1.80;;;14.20;93.60;;;;;;6280349;22;20400;-81
2023/09/04 05:29:20;;;;;;;3.15;1.70;;;14.30;93.60;;;;;;6280346;22;20023;-82
2023/09/04 05:31:51;;;;;;;3.38;1.90;;;14.30;93.60;;;;;;6306074;22;20090;-83
2023/09/04 05:34:18;;;;;;;2.63;1.27;;;14.30;93.50;;;;;;6305929;22;20057;-82
2023/09/04 05:36:46;;;;;;;3.20;1.70;;;14.30;93.50;;;;;;6306589;22;20262;-83
2023/09/04 05:39:13;;;;;;;3.95;2.00;;;14.30;93.50;;;;;;6280378;22;20019;-83
2023/09/04 05:41:40;;;;;;;3.08;1.77;;;14.40;93.50;;;;;;6280273;22;20030;-83
2023/09/04 05:44:08;;;;;;;3.47;1.67;;;14.40;93.40;;;;;;6279956;22;20030;-83
2023/09/04 05:46:35;;;;;;;3.42;1.98;;;14.40;93.40;;;;;;6281073;22;20086;-84
2023/09/04 05:49:02;;;;;;;3.70;2.00;;;14.50;93.40;;;;;;6281067;22;20015;-83
2023/09/04 05:51:30;;;;;;;2.97;1.58;;;14.50;93.40;;;;;;6280626;22;20023;-83
2023/09/04 05:53:57;;;;;;;4.00;1.73;;;14.60;93.40;;;;;;6280882;22;20023;-83
2023/09/04 05:56:24;;;;;;;3.88;2.03;;;14.60;93.30;;;;;;6254712;22;20019;-83
2023/09/04 05:58:54;;;;;;;3.72;1.92;;;14.70;93.30;;;;;;6305947;22;20050;-83
2023/09/04 06:01:23;;;;;;;2.92;1.63;;;14.70;93.20;;;;;;6280305;22;20445;-84
2023/09/04 06:03:50;;;;;;;4.35;2.70;;;14.80;93.10;;;;;;6280707;22;20019;-83
2023/09/04 06:06:17;;;;;;;3.55;2.13;;;14.90;93.10;;;;;;6279871;22;20022;-84
2023/09/04 06:08:45;;;;;;;3.45;1.77;;;15.00;93.00;;;;;;6306042;22;20019;-86
2023/09/04 06:11:12;;;;;;;4.00;2.15;;;15.00;93.20;;;;;;6280179;22;20020;-84
2023/09/04 06:13:39;;;;;;;4.60;2.50;;;15.10;92.90;;;;;;6281123;22;20019;-87
2023/09/04 06:16:06;;;;;;;5.40;2.50;;;15.20;92.80;;;;;;6305811;22;20019;-82
2023/09/04 06:18:35;;;;;;;3.78;1.92;;;15.30;92.80;;;;;;6306256;22;20130;-85
2023/09/04 06:21:02;;;;;;;4.15;2.40;;;15.40;92.70;;;;;;6280779;22;20026;-85
2023/09/04 06:23:29;;;;;;;3.95;2.63;;;15.50;92.60;;;;;;6280744;22;20023;-85
2023/09/04 06:25:59;;;;;;;4.90;2.35;;;15.50;92.80;;;;;;6305288;22;20341;-83
2023/09/04 06:28:26;;;;;;;4.28;2.00;;;15.60;92.50;;;;;;6280819;22;20508;-83
2023/09/04 06:30:57;;;;;;;3.03;1.70;;;15.80;92.40;;;;;;6280017;22;20015;-83
2023/09/04 06:33:27;;;;;;;3.95;2.33;;;15.80;92.30;;;;;;6305483;22;20387;-83
2023/09/04 06:35:57;;;;;;;3.60;1.90;;;15.90;92.30;;;;;;6281180;22;20031;-83
2023/09/04 06:38:24;;;;;;;3.63;2.40;;;16.00;92.20;;;;;;6254551;22;20077;-83
2023/09/04 06:40:57;;;;;;;3.20;2.40;;;16.10;92.10;;;;;;6279779;22;20023;-84
2023/09/04 06:43:28;;;;;;;3.15;1.90;;;16.20;92.10;;;;;;6279835;22;20023;-82
2023/09/04 06:45:55;;;;;;;3.53;1.67;;;16.30;92.00;;;;;;6305370;22;20101;-82
2023/09/04 06:48:22;;;;;;;3.70;2.33;;;16.40;91.90;;;;;;6280467;22;20018;-84
2023/09/04 06:50:51;;;;;;;4.00;2.25;;;16.50;91.90;;;;;;6280664;22;20020;-86
2023/09/04 06:53:19;;;;;;;3.60;2.20;;;16.60;91.80;;;;;;6307953;22;20022;-88
2023/09/04 06:55:49;;;;;;;3.65;2.22;;;16.70;91.80;;;;;;6308655;22;20049;-87
2023/09/04 06:58:19;;;;;;;3.80;2.38;;;16.70;91.70;;;;;;6308125;22;20020;-82
2023/09/04 07:00:46;;;;;;;4.55;2.50;;;16.80;91.70;;;;;;6282153;22;20030;-83
2023/09/04 07:03:18;;;;;;;3.47;2.10;;;16.90;91.60;;;;;;6282921;22;20023;-82
2023/09/04 07:05:47;;;;;;;3.78;2.58;;;17.00;91.60;;;;;;6281572;22;20019;-83
2023/09/04 07:08:14;;;;;;;4.20;2.75;;;17.00;91.50;;;;;;6282309;22;20106;-83
2023/09/04 07:10:42;;;;;;;3.70;2.58;;;17.10;91.40;;;;;;6307755;22;20086;-83
2023/09/04 07:13:09;;;;;;;4.18;2.28;;;17.10;91.40;;;;;;6284496;22;20019;-83
2023/09/04 07:15:36;;;;;;;5.10;2.92;;;17.20;91.40;;;;;;6310251;22;20076;-83
2023/09/04 07:18:04;;;;;;;4.80;2.72;;;17.20;91.30;;;;;;6258046;22;20016;-83
2023/09/04 07:20:31;;;;;;;3.22;2.10;;;17.30;91.30;;;;;;6282028;22;20031;-83
2023/09/04 07:22:59;;;;;;;4.13;2.40;;;17.30;91.30;;;;;;6282071;22;20015;-83
2023/09/04 07:25:46;;;;;;;4.22;2.60;;;17.30;91.30;;;;;;6290287;22;20019;-83
2023/09/04 07:28:13;;;;;;;3.92;1.85;;;17.40;91.30;;;;;;6282371;22;20015;-83
2023/09/04 07:30:41;;;;;;;4.82;2.05;;;17.40;91.50;;;;;;6282417;22;20094;-84
2023/09/04 07:33:09;;;;;;;3.78;1.90;;;17.50;91.20;;;;;;6282083;22;20053;-82
2023/09/04 07:35:36;;;;;;;3.75;1.75;;;17.60;91.10;;;;;;6281768;22;20147;-82
2023/09/04 07:38:03;;;;;;;3.63;2.13;;;17.60;91.10;;;;;;6282081;22;20014;-82
2023/09/04 07:40:30;;;;;;;4.03;2.03;;;17.70;91.00;;;;;;6281550;22;20429;-82
2023/09/04 07:42:57;;;;;;;3.00;1.90;;;17.80;91.00;;;;;;6281403;22;20098;-82
2023/09/04 07:45:25;;;;;;;3.67;1.75;;;17.90;90.90;;;;;;6281354;22;20015;-83
2023/09/04 07:47:52;;;;;;;3.05;2.13;;;18.00;90.90;;;;;;6256206;22;20015;-83
2023/09/04 07:50:19;;;;;;;3.08;1.88;;;18.10;90.80;;;;;;6281600;22;20023;-83
2023/09/04 07:52:46;;;;;;;3.35;1.85;;;18.20;90.70;;;;;;6307224;22;20047;-83
2023/09/04 07:55:13;;;;;;;3.88;2.35;;;18.30;90.70;;;;;;6307334;22;20433;-82
2023/09/04 07:57:40;;;;;;;3.50;1.88;;;18.40;90.60;;;;;;6281810;22;20396;-83
2023/09/04 08:00:08;;;;;;;3.15;1.75;;;18.50;90.50;;;;;;6281765;22;20026;-83
2023/09/04 08:02:41;;;;;;;2.83;1.27;;;18.60;90.50;;;;;;6307694;22;20027;-84
2023/09/04 08:05:08;;;;;;;3.55;1.90;;;18.70;90.40;;;;;;6281886;22;20059;-82
2023/09/04 08:07:35;;;;;;;2.97;1.85;;;18.80;90.30;;;;;;6308082;22;20015;-83
2023/09/04 08:10:02;;;;;;;4.18;2.20;;;18.80;90.20;;;;;;6281515;22;20030;-84
2023/09/04 08:12:30;;;;;;;3.78;2.40;;;19.00;90.20;;;;;;6281842;22;20019;-85
2023/09/04 08:14:57;;;;;;;4.05;2.15;;;19.10;90.40;;;;;;6281607;22;20019;-82
2023/09/04 08:17:25;;;;;;;3.25;2.05;;;19.10;90.00;;;;;;6307406;22;20084;-83
2023/09/04 08:19:53;;;;;;;2.97;1.73;;;19.20;90.00;;;;;;6256468;22;20058;-83
2023/09/04 08:22:20;;;;;;;2.88;1.70;;;19.30;89.90;;;;;;6281013;22;20023;-84
2023/09/04 08:24:48;;;;;;;3.75;1.80;;;19.40;89.70;;;;;;6307199;22;20072;-83
2023/09/04 08:27:15;;;;;;;2.88;1.52;;;19.50;89.60;;;;;;6281486;22;20118;-83
2023/09/04 08:29:43;;;;;;;3.42;2.10;;;19.60;89.50;;;;;;6282087;22;20022;-83
2023/09/04 08:32:10;;;;;;;4.32;2.03;;;19.70;89.40;;;;;;6256122;22;20349;-82
2023/09/04 08:34:37;;;;;;;3.05;1.80;;;19.70;89.30;;;;;;6281575;22;20012;-82
2023/09/04 08:37:04;;;;;;;3.45;2.33;;;19.80;89.10;;;;;;6281155;22;20050;-82
2023/09/04 08:39:32;;;;;;;3.08;1.70;;;19.90;89.10;;;;;;6281111;22;20018;-82
2023/09/04 08:41:59;;;;;;;4.10;2.42;;;19.90;89.00;;;;;;6281230;22;20019;-82
2023/09/04 08:44:26;;;;;;;4.05;1.90;;;20.00;88.90;;;;;;6307241;22;20096;-83
2023/09/04 08:46:57;;;;;;;2.65;1.80;;;20.00;88.70;;;;;;6306911;22;20015;-82
2023/09/04 08:49:25;;;;;;;3.88;2.17;;;20.20;88.70;;;;;;6281565;22;20023;-83
2023/09/04 08:51:56;;;;;;;3.47;2.35;;;20.20;88.60;;;;;;6307652;22;20039;-90
2023/09/04 08:54:26;;;;;;;3.80;2.35;;;20.30;88.60;;;;;;6283249;22;20019;-91
2023/09/04 08:56:53;;;;;;;3.92;1.88;;;20.30;88.60;;;;;;6283116;22;20031;-92
2023/09/04 08:59:20;;;;;;;3.95;1.95;;;20.30;88.50;;;;;;6283389;22;20019;-92
2023/09/04 09:01:48;;;;;;;2.38;1.60;;;20.30;88.40;;;;;;6308176;22;20041;-90
2023/09/04 09:04:19;;;;;;;2.38;1.42;;;20.40;88.30;;;;;;6308228;22;20027;-91
2023/09/04 09:06:53;;;;;;;2.60;1.38;;;20.50;88.20;;;;;;6308262;22;20030;-86
2023/09/04 09:09:27;;;;;;;2.33;1.38;;;20.60;88.00;;;;;;6307929;22;20019;-90
2023/09/04 09:12:01;;;;;;;3.40;1.88;;;20.70;88.00;;;;;;6307742;22;20015;-90
2023/09/04 09:14:29;;;;;;;2.53;1.33;;;20.80;87.80;;;;;;6257658;22;20019;-84
2023/09/04 09:17:07;;;;;;;3.30;1.92;;;20.80;87.70;;;;;;6309013;22;20019;-88
2023/09/04 09:19:35;;;;;;;3.35;1.98;;;21.00;87.50;;;;;;6309931;22;20030;-81
2023/09/04 09:22:16;;;;;;;3.40;1.73;;;21.00;87.40;;;;;;6306664;22;20022;-83
2023/09/04 09:25:00;;;;;;;3.08;1.63;;;21.10;87.20;;;;;;6283032;22;20026;-84
2023/09/04 09:27:30;;;;;;;3.20;1.92;;;21.20;87.10;;;;;;6309129;22;20047;-88
2023/09/04 09:29:59;;;;;;;3.90;1.98;;;21.20;87.10;;;;;;6306929;22;20445;-83
2023/09/04 09:32:32;;;;;;;4.10;2.10;;;21.30;86.90;;;;;;6306582;22;20445;-82
2023/09/04 09:35:01;;;;;;;2.75;1.55;;;21.40;86.80;;;;;;6280552;22;20023;-82
2023/09/04 09:37:32;;;;;;;3.10;1.50;;;21.50;86.60;;;;;;6306095;22;20098;-83
2023/09/04 09:40:00;;;;;;;2.55;1.60;;;21.60;86.50;;;;;;6280730;22;20406;-84
2023/09/04 09:42:27;;;;;;;3.92;1.85;;;21.60;86.40;;;;;;6280305;22;20023;-83
2023/09/04 09:44:54;;;;;;;3.60;1.92;;;21.70;86.20;;;;;;6306068;22;20019;-81
2023/09/04 09:47:29;;;;;;;2.78;1.60;;;21.70;86.00;;;;;;6281755;22;20019;-81
2023/09/04 09:49:58;;;;;;;2.92;1.48;;;21.80;85.80;;;;;;6280683;22;20015;-86
2023/09/04 09:52:25;;;;;;;3.50;1.60;;;21.90;85.70;;;;;;6306064;22;20015;-87
2023/09/04 09:54:52;;;;;;;1.98;1.08;;;21.90;85.50;;;;;;6280729;22;20155;-84
2023/09/04 09:57:20;;;;;;;2.55;1.67;;;22.00;85.40;;;;;;6280434;22;20019;-83
2023/09/04 09:59:49;;;;;;;2.10;1.35;;;22.00;85.30;;;;;;6254906;22;20026;-83
2023/09/04 10:02:22;;;;;;;2.35;1.13;;;22.10;85.20;;;;;;6305655;22;20106;-84
2023/09/04 10:04:50;;;;;;;2.40;1.10;;;22.10;85.00;;;;;;6306050;22;20022;-85
2023/09/04 10:07:27;;;;;;;2.15;1.10;;;22.20;84.80;;;;;;6280372;22;20011;-85
2023/09/04 10:10:05;;;;;;;1.83;0.90;;;22.30;84.10;;;;;;6305509;22;20046;-84
2023/09/04 10:12:43;;;;;;;2.15;0.80;;;22.60;83.40;;;;;;6305789;22;20019;-85
2023/09/04 10:15:15;;;;;;;1.33;0.70;;;22.80;82.80;;;;;;6305672;22;20015;-83
2023/09/04 10:18:05;;;;;;;2.75;0.88;;;22.90;82.40;;;;;;6280726;22;20023;-85
2023/09/04 10:20:36;;;;;;;2.15;0.93;;;23.10;81.70;;;;;;6305890;22;20106;-86
2023/09/04 10:23:09;;;;;;;1.38;0.70;;;23.20;81.30;;;;;;6306147;22;20019;-84
2023/09/04 10:25:55;;;;;;;1.92;0.98;;;23.30;81.00;;;;;;6307819;22;20420;-87
2023/09/04 10:28:31;;;;;;;1.92;0.90;;;23.40;80.60;;;;;;6279352;22;20513;-84
2023/09/04 10:31:12;;;;;;;1.63;0.80;;;23.40;80.40;;;;;;6305826;22;20330;-85
2023/09/04 10:33:39;;;;;;;2.08;0.63;;;23.50;80.20;;;;;;6305865;22;20015;-85
2023/09/04 10:36:08;;;;;;;1.20;0.63;;;23.50;79.90;;;;;;6306242;22;20025;-81
2023/09/04 10:38:36;;;;;;;1.42;0.80;;;23.70;79.50;;;;;;6305383;22;20023;-79
2023/09/04 10:41:05;;;;;;;1.60;0.70;;;23.70;79.10;;;;;;6255305;22;20019;-84
2023/09/04 10:43:42;;;;;;;1.70;0.70;;;23.80;78.80;;;;;;6280715;22;20023;-85
2023/09/04 10:46:11;;;;;;;1.77;0.73;;;24.00;78.30;;;;;;6279669;22;20023;-87
2023/09/04 10:48:49;;;;;;;1.85;0.60;;;24.10;78.00;;;;;;6254297;22;20102;-84
2023/09/04 10:51:28;;;;;;;1.52;0.70;;;24.30;77.50;;;;;;6280381;22;20025;-87
2023/09/04 10:53:59;;;;;;;1.90;0.82;;;24.40;77.00;;;;;;6280852;22;20085;-90
2023/09/04 10:56:26;;;;;;;1.20;0.70;;;24.40;77.00;;;;;;6282815;22;20015;-92
2023/09/04 10:59:03;;;;;;;1.52;0.70;;;24.20;77.10;;;;;;6281434;22;20401;-90
2023/09/04 11:01:34;;;;;;;1.83;0.60;;;24.00;77.60;;;;;;6306514;22;20015;-87
2023/09/04 11:04:33;;;;;;;1.52;0.77;;;23.70;78.40;;;;;;6281181;22;20026;-92
2023/09/04 11:07:20;;;;;;;2.28;0.73;;;23.60;78.80;;;;;;6306399;22;20019;-88
2023/09/04 11:09:53;;;;;;;1.33;0.60;;;23.50;79.30;;;;;;6281000;22;20080;-91
2023/09/04 11:12:22;;;;;;;1.33;0.73;;;23.40;79.60;;;;;;6307383;22;20444;-89
2023/09/04 11:14:58;;;;;;;1.70;0.60;;;23.30;79.80;;;;;;6306410;22;20019;-89
2023/09/04 11:17:43;;;;;;;1.35;0.70;;;23.30;79.80;;;;;;6306955;22;20072;-88
2023/09/04 11:20:14;;;;;;;;;;;23.30;79.90;;;;;;6307600;22;20022;-89
2023/09/04 11:22:48;;;;;;;1.65;0.73;;;23.20;80.40;;;;;;6306426;22;19915;-89
2023/09/04 11:25:16;;;;;;;1.13;0.57;;;23.30;80.20;;;;;;6306751;22;20030;-87
2023/09/04 11:27:45;;;;;;;1.77;0.70;;;23.60;79.60;;;;;;6306190;22;20025;-87
2023/09/04 11:30:14;;;;;;;1.40;0.80;;;24.20;78.20;;;;;;6305623;22;20043;-84
2023/09/04 11:32:41;;;;;;;2.25;0.90;;;24.70;76.80;;;;;;6280953;22;20102;-86
2023/09/04 11:35:28;;;;;;;1.60;0.70;;;25.10;75.70;;;;;;6306878;22;20096;-87
2023/09/04 11:37:57;;;;;;;2.15;1.02;;;25.50;74.80;;;;;;6306895;22;20041;-87
2023/09/04 11:40:31;;;;;;;1.25;0.70;;;25.50;74.50;;;;;;6308611;22;20019;-87
2023/09/04 11:42:58;;;;;;;;;;;25.70;74.40;;;;;;6309324;22;20042;-86
2023/09/04 11:45:26;;;;;;;2.50;1.17;;;25.70;74.60;;;;;;6282481;22;19984;-87
2023/09/04 11:47:53;;;;;;;2.50;1.00;;;25.90;74.10;;;;;;6282303;22;20102;-87
2023/09/04 11:50:20;;;;;;;1.92;1.02;;;26.00;73.60;;;;;;6307734;22;20012;-88
2023/09/04 11:52:51;;;;;;;2.20;1.20;;;26.10;73.50;;;;;;6282797;22;20094;-87
2023/09/04 11:55:22;;;;;;;1.90;1.20;;;26.20;73.30;;;;;;6282729;22;20027;-87
2023/09/04 11:57:50;;;;;;;5.07;1.30;;;26.30;72.90;;;;;;6307613;22;20019;-87
2023/09/04 12:00:17;;;;;;;2.20;1.13;;;26.50;72.80;;;;;;6282107;22;20070;-84
2023/09/04 12:02:47;;;;;;;1.48;0.90;;;26.50;72.70;;;;;;6282563;22;20105;-83
2023/09/04 12:05:14;;;;;;;1.77;1.00;;;26.60;72.70;;;;;;6282504;22;20044;-83
2023/09/04 12:07:41;;;;;;;2.38;1.50;;;26.50;72.90;;;;;;6281321;22;20019;-83
2023/09/04 12:10:10;;;;;;;2.40;1.27;;;26.30;73.20;;;;;;6307070;22;20020;-83
2023/09/04 12:12:38;;;;;;;1.77;0.90;;;25.90;74.40;;;;;;6307436;22;20019;-83
2023/09/04 12:15:06;;;;;;;2.03;1.10;;;25.50;74.60;;;;;;6281594;22;20019;-83
2023/09/04 12:17:33;;;;;;;2.35;1.20;;;25.20;75.30;;;;;;6256094;22;20098;-82
2023/09/04 12:20:08;;;;;;;1.70;1.20;;;25.00;75.70;;;;;;6307021;22;20046;-82
2023/09/04 12:22:36;;;;;;;2.08;1.20;;;24.80;76.00;;;;;;6306288;22;20111;-82
2023/09/04 12:25:07;;;;;;;2.13;1.20;;;24.60;76.40;;;;;;6306905;22;20346;-84
2023/09/04 12:27:35;;;;;;;;;;;24.50;76.50;;;;;;6307020;22;20073;-82
2023/09/04 12:30:04;;;;;;;1.60;0.90;;;24.40;77.10;;;;;;6281050;22;19994;-82
2023/09/04 12:32:36;;;;;;;2.35;1.30;;;24.30;77.20;;;;;;6307099;22;20011;-83
2023/09/04 12:35:06;;;;;;;2.40;1.40;;;24.30;77.00;;;;;;6256097;22;20023;-82
2023/09/04 12:37:34;;;;;;;2.22;1.00;;;24.20;76.90;;;;;;6281608;22;20102;-83
2023/09/04 12:40:01;;;;;;;2.13;1.23;;;24.20;77.00;;;;;;6306828;22;20408;-82
2023/09/04 12:42:28;;;;;;;2.40;1.50;;;24.20;76.90;;;;;;6255562;22;20019;-81
2023/09/04 12:44:56;;;;;;;2.30;1.20;;;24.20;76.80;;;;;;6281582;22;20023;-82
2023/09/04 12:47:23;;;;;;;2.38;1.58;;;24.20;76.60;;;;;;6280647;22;20015;-83
2023/09/04 12:49:50;;;;;;;2.53;1.10;;;24.10;76.60;;;;;;6281522;22;20307;-82
2023/09/04 12:52:17;;;;;;;2.15;1.25;;;24.10;76.60;;;;;;6306487;22;20038;-83
2023/09/04 12:54:45;;;;;;;2.40;1.40;;;24.10;76.60;;;;;;6281122;22;20022;-81
2023/09/04 12:57:12;;;;;;;2.53;1.30;;;24.10;76.50;;;;;;6306953;22;20023;-82
2023/09/04 12:59:40;;;;;;;4.15;1.27;;;24.10;76.20;;;;;;6281314;22;20015;-85